Time;durP1;ratioP1;P1;durP2;ratioP2;P2;SDS_P1;SDS_P2;PMS_P1;PMS_P2;Temp;Humidity;BMP_temperature;BMP_pressure;BME280_temperature;BME280_humidity;BME280_pressure;Samples;Min_cycle;Max_cycle;Signal;HPM_P1;HPM_P2
2021/06/16 00:00:31;;;;;;;0.10;0.10;;;21.90;61.90;;;;;;5070925;28;20033;-81
2021/06/16 00:02:56;;;;;;;0.00;0.00;;;21.90;62.30;;;;;;5071645;28;20033;-81
2021/06/16 00:05:25;;;;;;;0.10;0.10;;;21.90;62.10;;;;;;5059090;28;20036;-81
2021/06/16 00:07:51;;;;;;;0.00;0.00;;;21.90;61.90;;;;;;5075955;28;20407;-81
2021/06/16 00:10:21;;;;;;;0.00;0.00;;;21.90;61.90;;;;;;5076133;28;20027;-81
2021/06/16 00:12:49;;;;;;;0.10;0.10;;;21.90;62.30;;;;;;5071949;28;20108;-81
2021/06/16 00:15:44;;;;;;;0.10;0.10;;;21.90;62.10;;;;;;5056171;28;20019;-81
2021/06/16 00:18:20;;;;;;;0.10;0.10;;;21.70;63.00;;;;;;5055685;28;20032;-81
2021/06/16 00:20:45;;;;;;;0.10;0.10;;;21.60;63.50;;;;;;5055886;28;20033;-81
2021/06/16 00:23:11;;;;;;;0.00;0.00;;;21.60;63.30;;;;;;5055849;28;20059;-81
2021/06/16 00:25:37;;;;;;;0.13;0.10;;;21.50;63.50;;;;;;5055819;28;20029;-81
2021/06/16 00:28:03;;;;;;;0.00;0.00;;;21.50;63.30;;;;;;5055610;28;20036;-81
2021/06/16 00:30:30;;;;;;;0.03;0.03;;;21.60;63.50;;;;;;5071398;28;20384;-81
2021/06/16 00:32:56;;;;;;;0.10;0.10;;;21.50;63.50;;;;;;5071229;28;20063;-81
2021/06/16 00:35:39;;;;;;;0.10;0.10;;;21.50;63.90;;;;;;5070515;28;20055;-80
2021/06/16 00:38:05;;;;;;;0.10;0.10;;;21.40;63.80;;;;;;5075207;28;20493;-81
2021/06/16 00:40:32;;;;;;;0.10;0.10;;;21.30;63.50;;;;;;5072939;28;20111;-81
2021/06/16 00:42:58;;;;;;;0.00;0.00;;;21.30;63.80;;;;;;5055743;28;20040;-81
2021/06/16 00:45:24;;;;;;;0.10;0.08;;;21.30;64.50;;;;;;5054414;28;20112;-81
2021/06/16 00:47:55;;;;;;;0.10;0.10;;;21.30;64.60;;;;;;5055228;28;20453;-81
2021/06/16 00:50:32;;;;;;;0.13;0.10;;;21.30;64.40;;;;;;5055460;28;20116;-82
2021/06/16 00:52:58;;;;;;;0.10;0.10;;;21.30;64.90;;;;;;5071015;28;20052;-82
2021/06/16 00:55:25;;;;;;;0.03;0.03;;;21.30;64.60;;;;;;5055556;28;20017;-81
2021/06/16 00:57:51;;;;;;;0.10;0.10;;;21.30;64.60;;;;;;5063698;28;20028;-81
2021/06/16 01:00:21;;;;;;;0.10;0.10;;;21.30;64.40;;;;;;5075305;28;20115;-81
2021/06/16 01:02:56;;;;;;;0.05;0.05;;;21.30;65.00;;;;;;5075266;28;20120;-81
2021/06/16 01:05:26;;;;;;;0.00;0.00;;;21.20;65.20;;;;;;5059475;28;20057;-81
2021/06/16 01:07:58;;;;;;;0.10;0.10;;;21.20;65.30;;;;;;5055055;28;20059;-81
2021/06/16 01:10:25;;;;;;;0.10;0.10;;;21.10;65.90;;;;;;5055238;28;20033;-81
2021/06/16 01:13:02;;;;;;;0.10;0.10;;;21.10;65.50;;;;;;5071260;28;20108;-81
2021/06/16 01:15:42;;;;;;;0.10;0.10;;;21.10;65.80;;;;;;5067937;28;20028;-81
2021/06/16 01:18:08;;;;;;;0.10;0.10;;;21.10;66.20;;;;;;5055287;28;20108;-81
2021/06/16 01:20:53;;;;;;;0.10;0.10;;;21.10;66.00;;;;;;5055013;28;20495;-81
2021/06/16 01:23:43;;;;;;;0.10;0.10;;;21.00;65.80;;;;;;5055055;28;20082;-81
2021/06/16 01:26:40;;;;;;;0.10;0.10;;;21.10;66.40;;;;;;5072669;28;20029;-81
2021/06/16 01:29:14;;;;;;;0.10;0.10;;;21.10;66.70;;;;;;5074571;28;20037;-81
2021/06/16 01:31:41;;;;;;;0.00;0.00;;;21.10;66.50;;;;;;5060460;28;20030;-81
2021/06/16 01:34:09;;;;;;;0.00;0.00;;;21.10;67.40;;;;;;5055006;28;20056;-81
2021/06/16 01:36:37;;;;;;;0.10;0.08;;;21.10;67.30;;;;;;5054900;28;20025;-81
2021/06/16 01:39:08;;;;;;;0.00;0.00;;;21.20;67.00;;;;;;5055108;28;20029;-81
2021/06/16 01:41:34;;;;;;;0.10;0.10;;;21.10;67.10;;;;;;5054856;28;20036;-81
2021/06/16 01:44:03;;;;;;;0.00;0.00;;;21.10;67.80;;;;;;5055041;28;20022;-81
2021/06/16 01:46:30;;;;;;;0.20;0.10;;;21.20;67.20;;;;;;5053520;28;20032;-81
2021/06/16 01:48:57;;;;;;;0.00;0.00;;;21.20;68.30;;;;;;5054535;28;20029;-81
2021/06/16 01:51:24;;;;;;;0.13;0.10;;;21.20;67.60;;;;;;5058866;28;20025;-81
2021/06/16 01:53:51;;;;;;;0.10;0.10;;;21.20;67.50;;;;;;5058735;28;20027;-81
2021/06/16 01:56:21;;;;;;;0.10;0.10;;;21.20;66.70;;;;;;5058460;28;20057;-81
2021/06/16 01:58:48;;;;;;;0.10;0.10;;;21.30;67.20;;;;;;5062913;28;20104;-81
2021/06/16 02:01:21;;;;;;;0.15;0.10;;;21.20;67.50;;;;;;5078599;28;20035;-81
2021/06/16 02:03:46;;;;;;;0.00;0.00;;;21.20;67.50;;;;;;5078369;28;20073;-81
2021/06/16 02:06:24;;;;;;;0.10;0.10;;;21.10;68.00;;;;;;5063566;28;20033;-80
2021/06/16 02:08:50;;;;;;;0.10;0.10;;;21.20;67.40;;;;;;5057283;28;20047;-81
2021/06/16 02:11:22;;;;;;;0.00;0.00;;;21.20;67.70;;;;;;5058334;28;20033;-81
2021/06/16 02:13:54;;;;;;;0.00;0.00;;;21.20;66.90;;;;;;5058367;28;20052;-81
2021/06/16 02:16:39;;;;;;;0.10;0.10;;;21.20;67.80;;;;;;5057483;28;20029;-81
2021/06/16 02:19:12;;;;;;;0.10;0.10;;;21.20;67.50;;;;;;5056844;28;20051;-81
2021/06/16 02:21:38;;;;;;;0.10;0.10;;;21.10;68.40;;;;;;5058195;28;20044;-81
2021/06/16 02:24:05;;;;;;;0.10;0.10;;;21.10;67.70;;;;;;5058081;28;20021;-80
2021/06/16 02:26:31;;;;;;;0.03;0.03;;;21.10;68.10;;;;;;5058084;28;20640;-81
2021/06/16 02:28:56;;;;;;;0.10;0.10;;;21.10;68.10;;;;;;5057882;28;20083;-81
2021/06/16 02:31:22;;;;;;;0.10;0.10;;;21.00;68.30;;;;;;5057924;28;20021;-81
2021/06/16 02:33:49;;;;;;;0.03;0.03;;;21.00;68.20;;;;;;5057917;28;20025;-81
2021/06/16 02:36:15;;;;;;;0.10;0.10;;;21.00;68.60;;;;;;5057738;28;20023;-81
2021/06/16 02:38:44;;;;;;;0.10;0.10;;;21.00;67.90;;;;;;5073412;28;20100;-80
2021/06/16 02:41:14;;;;;;;0.10;0.10;;;21.00;68.20;;;;;;5057979;28;20021;-81
2021/06/16 02:43:40;;;;;;;0.17;0.10;;;21.00;68.50;;;;;;5057852;28;20035;-81
2021/06/16 02:46:23;;;;;;;0.00;0.00;;;21.00;68.80;;;;;;5057751;28;20059;-81
2021/06/16 02:48:52;;;;;;;0.15;0.10;;;21.00;68.30;;;;;;5057573;28;20052;-81
2021/06/16 02:51:18;;;;;;;0.00;0.00;;;20.90;68.60;;;;;;5057577;28;20017;-81
2021/06/16 02:53:45;;;;;;;0.00;0.00;;;20.80;68.40;;;;;;5057731;28;20028;-81
2021/06/16 02:56:12;;;;;;;0.05;0.05;;;20.80;68.20;;;;;;5057296;28;20020;-81
2021/06/16 02:58:41;;;;;;;0.10;0.10;;;20.80;68.60;;;;;;5060595;28;20036;-81
2021/06/16 03:01:09;;;;;;;0.10;0.10;;;20.80;68.40;;;;;;5077133;28;20028;-81
2021/06/16 03:03:38;;;;;;;0.10;0.10;;;20.70;68.20;;;;;;5063526;28;20037;-80
2021/06/16 03:06:05;;;;;;;0.10;0.10;;;20.70;68.30;;;;;;5074108;28;20068;-81
2021/06/16 03:08:32;;;;;;;0.10;0.10;;;20.60;68.90;;;;;;5046738;28;20032;-80
2021/06/16 03:11:00;;;;;;;0.10;0.10;;;20.60;68.30;;;;;;5037406;28;20026;-81
2021/06/16 03:13:27;;;;;;;0.03;0.03;;;20.60;68.80;;;;;;5037539;28;20056;-81
2021/06/16 03:15:54;;;;;;;0.00;0.00;;;20.50;69.20;;;;;;5037384;28;20075;-81
2021/06/16 03:18:22;;;;;;;0.10;0.10;;;20.50;68.60;;;;;;5035647;28;20029;-81
2021/06/16 03:20:49;;;;;;;0.10;0.10;;;20.50;68.40;;;;;;5037040;28;20052;-81
2021/06/16 03:23:15;;;;;;;0.08;0.08;;;20.50;68.60;;;;;;5045096;28;20083;-81
2021/06/16 03:25:43;;;;;;;0.10;0.00;;;20.50;68.50;;;;;;5057258;28;20032;-81
2021/06/16 03:28:10;;;;;;;0.10;0.10;;;20.50;68.90;;;;;;5056844;28;20025;-81
2021/06/16 03:30:36;;;;;;;0.10;0.10;;;20.50;68.60;;;;;;5051183;28;20022;-81
2021/06/16 03:33:03;;;;;;;0.17;0.10;;;20.50;68.60;;;;;;5036928;28;20488;-81
2021/06/16 03:35:29;;;;;;;0.10;0.10;;;20.50;68.90;;;;;;5036646;28;20021;-81
2021/06/16 03:37:55;;;;;;;0.17;0.10;;;20.50;69.20;;;;;;5036851;28;20101;-81
2021/06/16 03:40:25;;;;;;;0.20;0.10;;;20.40;69.60;;;;;;5036850;28;20049;-81
2021/06/16 03:42:52;;;;;;;;;;;20.40;69.60;;;;;;5037341;28;20032;-82
2021/06/16 03:45:18;;;;;;;0.10;0.10;;;20.50;70.30;;;;;;5040700;28;19916;-81
2021/06/16 03:47:46;;;;;;;0.20;0.10;;;20.50;69.90;;;;;;5056404;28;20029;-81
2021/06/16 03:50:18;;;;;;;0.10;0.10;;;20.50;70.20;;;;;;5055407;28;20032;-81
2021/06/16 03:52:44;;;;;;;0.10;0.10;;;20.50;70.20;;;;;;5055921;28;20029;-81
2021/06/16 03:55:11;;;;;;;0.10;0.10;;;20.50;70.10;;;;;;5055968;28;20028;-81
2021/06/16 03:57:39;;;;;;;0.05;0.00;;;20.50;69.70;;;;;;5056375;28;20146;-81
2021/06/16 04:00:07;;;;;;;0.10;0.10;;;20.50;70.00;;;;;;5048910;28;20025;-81
2021/06/16 04:02:32;;;;;;;0.10;0.10;;;20.40;70.20;;;;;;5036354;28;20052;-81
2021/06/16 04:05:07;;;;;;;0.10;0.10;;;20.50;70.90;;;;;;5048604;28;20036;-81
2021/06/16 04:07:35;;;;;;;0.10;0.10;;;20.40;70.20;;;;;;5068379;28;20457;-81
2021/06/16 04:10:01;;;;;;;0.10;0.10;;;20.30;71.20;;;;;;5074430;28;20032;-81
2021/06/16 04:12:28;;;;;;;0.10;0.10;;;20.40;70.20;;;;;;5055926;28;20071;-82
2021/06/16 04:14:54;;;;;;;0.10;0.10;;;20.40;70.50;;;;;;5056169;28;20021;-81
2021/06/16 04:17:29;;;;;;;0.10;0.10;;;20.50;70.30;;;;;;5055697;28;20036;-79
2021/06/16 04:19:55;;;;;;;0.10;0.10;;;20.50;70.70;;;;;;5056048;28;20032;-82
2021/06/16 04:22:20;;;;;;;0.10;0.10;;;20.50;70.10;;;;;;5056097;28;20034;-82
2021/06/16 04:24:46;;;;;;;0.10;0.10;;;20.50;71.00;;;;;;5057982;28;20127;-82
2021/06/16 04:27:13;;;;;;;0.10;0.10;;;20.50;70.40;;;;;;5075829;28;20027;-82
2021/06/16 04:29:40;;;;;;;0.10;0.10;;;20.50;70.90;;;;;;5060074;28;20029;-79
2021/06/16 04:32:08;;;;;;;0.10;0.10;;;20.50;70.70;;;;;;5055700;28;20020;-79
2021/06/16 04:34:34;;;;;;;0.10;0.10;;;20.50;70.60;;;;;;5055830;28;20819;-79
2021/06/16 04:37:00;;;;;;;0.10;0.10;;;20.50;70.60;;;;;;5054677;28;20108;-79
2021/06/16 04:39:26;;;;;;;0.15;0.10;;;20.50;70.60;;;;;;5055608;28;20056;-79
2021/06/16 04:41:51;;;;;;;0.10;0.10;;;20.60;70.70;;;;;;5054329;28;20526;-79
2021/06/16 04:44:17;;;;;;;0.10;0.10;;;20.70;70.60;;;;;;5055764;28;20033;-79
2021/06/16 04:46:43;;;;;;;0.10;0.10;;;20.70;70.60;;;;;;5055704;28;20032;-79
2021/06/16 04:49:09;;;;;;;0.10;0.10;;;20.70;70.90;;;;;;5055250;28;20112;-80
2021/06/16 04:51:34;;;;;;;0.10;0.10;;;20.80;71.50;;;;;;5055604;28;20025;-80
2021/06/16 04:54:00;;;;;;;0.10;0.10;;;20.80;70.70;;;;;;5055282;28;20021;-80
2021/06/16 04:56:26;;;;;;;0.10;0.10;;;20.80;71.00;;;;;;5055462;28;20029;-80
2021/06/16 04:58:52;;;;;;;0.10;0.10;;;20.80;70.50;;;;;;5060698;28;20024;-80
2021/06/16 05:01:17;;;;;;;0.20;0.10;;;20.80;70.10;;;;;;5069974;28;20029;-79
2021/06/16 05:03:43;;;;;;;0.10;0.10;;;20.80;70.70;;;;;;5055264;28;20040;-79
2021/06/16 05:06:09;;;;;;;0.10;0.10;;;20.90;70.10;;;;;;5055018;28;20037;-81
2021/06/16 05:08:34;;;;;;;0.10;0.10;;;20.90;70.60;;;;;;5065003;28;20108;-78
2021/06/16 05:11:00;;;;;;;0.17;0.10;;;21.00;70.80;;;;;;5070723;28;20870;-78
2021/06/16 05:13:27;;;;;;;0.13;0.10;;;21.00;70.60;;;;;;5074703;28;20095;-78
2021/06/16 05:15:54;;;;;;;0.10;0.10;;;21.00;71.00;;;;;;5074815;28;20447;-80
2021/06/16 05:18:21;;;;;;;0.00;0.00;;;21.00;71.00;;;;;;5075084;28;20032;-81
2021/06/16 05:20:47;;;;;;;0.00;0.00;;;21.00;71.00;;;;;;5073687;28;20025;-79
2021/06/16 05:23:12;;;;;;;0.10;0.10;;;21.10;71.10;;;;;;5074006;28;20107;-76
2021/06/16 05:25:41;;;;;;;0.10;0.10;;;21.10;70.50;;;;;;5072992;28;20053;-78
2021/06/16 05:28:08;;;;;;;0.10;0.10;;;21.20;70.30;;;;;;5058797;28;20043;-78
2021/06/16 05:30:34;;;;;;;0.10;0.10;;;21.20;70.80;;;;;;5058900;28;20541;-77
2021/06/16 05:33:00;;;;;;;0.10;0.10;;;21.20;70.50;;;;;;5057159;28;20017;-77
2021/06/16 05:35:26;;;;;;;0.10;0.10;;;21.20;70.80;;;;;;5063051;28;20024;-77
2021/06/16 05:37:52;;;;;;;0.10;0.10;;;21.20;71.30;;;;;;5074363;28;20053;-77
2021/06/16 05:40:18;;;;;;;0.10;0.10;;;21.30;71.10;;;;;;5074452;28;20445;-77
2021/06/16 05:42:44;;;;;;;0.10;0.10;;;21.30;70.40;;;;;;5077963;28;20025;-77
2021/06/16 05:45:10;;;;;;;0.10;0.10;;;21.30;70.90;;;;;;5075341;28;20038;-78
2021/06/16 05:47:36;;;;;;;0.10;0.10;;;21.30;71.60;;;;;;5057772;28;20029;-78
2021/06/16 05:50:03;;;;;;;0.10;0.10;;;21.30;71.10;;;;;;5057574;28;20031;-78
2021/06/16 05:52:29;;;;;;;0.20;0.10;;;21.30;71.00;;;;;;5069043;28;20024;-78
2021/06/16 05:54:54;;;;;;;0.10;0.10;;;21.40;71.30;;;;;;5077703;28;20076;-77
2021/06/16 05:57:20;;;;;;;0.10;0.10;;;21.40;70.90;;;;;;5076355;28;20067;-78
2021/06/16 05:59:46;;;;;;;0.10;0.10;;;21.50;70.70;;;;;;5077551;28;20082;-78
2021/06/16 06:02:11;;;;;;;0.10;0.10;;;21.50;70.90;;;;;;5076122;28;20032;-78
2021/06/16 06:04:39;;;;;;;0.10;0.10;;;21.40;71.20;;;;;;5075379;28;20059;-77
2021/06/16 06:07:05;;;;;;;0.00;0.00;;;21.50;70.90;;;;;;5077418;28;20109;-77
2021/06/16 06:09:31;;;;;;;0.10;0.05;;;21.50;70.80;;;;;;5077379;28;20036;-78
2021/06/16 06:11:57;;;;;;;0.10;0.10;;;21.70;70.50;;;;;;5077351;28;20062;-78
2021/06/16 06:14:23;;;;;;;0.10;0.10;;;21.70;70.40;;;;;;5060104;28;20025;-78
2021/06/16 06:16:49;;;;;;;0.10;0.10;;;21.80;70.00;;;;;;5056047;28;20033;-78
2021/06/16 06:19:15;;;;;;;0.10;0.10;;;21.90;69.80;;;;;;5072388;28;20037;-78
2021/06/16 06:21:40;;;;;;;0.10;0.00;;;22.10;69.30;;;;;;5055767;28;20120;-78
2021/06/16 06:24:06;;;;;;;0.00;0.00;;;22.20;69.30;;;;;;5055878;28;20025;-78
2021/06/16 06:26:33;;;;;;;0.13;0.10;;;22.30;69.20;;;;;;5057222;28;20049;-77
2021/06/16 06:28:59;;;;;;;0.03;0.03;;;22.30;69.20;;;;;;5056945;28;20029;-77
2021/06/16 06:31:25;;;;;;;0.10;0.10;;;22.30;69.20;;;;;;5067819;28;20028;-77
2021/06/16 06:33:51;;;;;;;0.10;0.00;;;22.30;69.30;;;;;;5076781;28;20028;-77
2021/06/16 06:36:19;;;;;;;0.10;0.10;;;22.40;68.90;;;;;;5070438;28;20029;-77
2021/06/16 06:38:45;;;;;;;0.10;0.10;;;22.50;68.90;;;;;;5056847;28;20510;-77
2021/06/16 06:41:12;;;;;;;0.10;0.10;;;22.60;68.30;;;;;;5055676;28;20032;-77
2021/06/16 06:43:38;;;;;;;0.15;0.10;;;22.60;68.60;;;;;;5061331;28;20036;-77
2021/06/16 06:46:04;;;;;;;0.10;0.10;;;22.70;67.80;;;;;;5056765;28;20036;-77
2021/06/16 06:48:30;;;;;;;0.03;0.00;;;22.80;67.80;;;;;;5056662;28;20112;-76
2021/06/16 06:50:55;;;;;;;0.10;0.10;;;22.80;68.20;;;;;;5071272;28;20100;-77
2021/06/16 07:17:58;;;;;;;0.05;0.05;;;22.20;71.30;;;;;;5119820;27;20978;-83
2021/06/16 07:20:24;;;;;;;0.10;0.10;;;22.40;70.80;;;;;;5091060;28;20029;-76
2021/06/16 07:22:50;;;;;;;0.00;0.00;;;22.90;70.00;;;;;;5091248;28;20045;-76
2021/06/16 07:25:16;;;;;;;0.22;0.20;;;23.70;67.20;;;;;;5090934;28;20494;-77
2021/06/16 07:27:43;;;;;;;0.20;0.10;;;24.90;63.70;;;;;;5091271;28;20032;-78
2021/06/16 07:30:09;;;;;;;0.15;0.10;;;27.20;55.20;;;;;;5107053;28;20020;-77
2021/06/16 07:32:36;;;;;;;0.00;0.00;;;29.10;51.00;;;;;;5095274;28;20749;-78
2021/06/16 07:35:03;;;;;;;0.00;0.00;;;30.20;49.30;;;;;;5111089;28;20035;-78
2021/06/16 07:37:29;;;;;;;0.00;0.00;;;29.70;49.60;;;;;;5111290;28;20016;-78
2021/06/16 07:39:55;;;;;;;0.00;0.00;;;28.90;51.70;;;;;;5109944;28;20027;-78
2021/06/16 07:42:21;;;;;;;0.10;0.00;;;28.50;52.10;;;;;;5097603;28;20035;-78
2021/06/16 07:44:48;;;;;;;0.00;0.00;;;28.00;53.00;;;;;;5109622;28;20028;-77
2021/06/16 07:47:13;;;;;;;0.20;0.10;;;27.40;53.50;;;;;;5111132;28;20127;-78
2021/06/16 07:49:39;;;;;;;0.00;0.00;;;28.90;51.80;;;;;;5109926;28;20051;-78
2021/06/16 07:52:06;;;;;;;0.10;0.00;;;30.10;48.30;;;;;;5111142;28;20028;-78
2021/06/16 07:54:32;;;;;;;0.08;0.08;;;29.30;49.40;;;;;;5092876;28;20461;-78
2021/06/16 07:56:58;;;;;;;0.10;0.10;;;31.30;46.30;;;;;;5089220;28;20035;-77
2021/06/16 07:59:23;;;;;;;0.00;0.00;;;33.80;41.90;;;;;;5106068;28;20032;-77
2021/06/16 08:01:49;;;;;;;0.00;0.00;;;35.20;38.00;;;;;;5111526;28;20061;-76
2021/06/16 08:04:16;;;;;;;0.00;0.00;;;35.70;36.20;;;;;;5109765;28;20184;-77
2021/06/16 08:06:41;;;;;;;0.00;0.00;;;36.20;36.00;;;;;;5111202;28;20085;-76
2021/06/16 08:09:07;;;;;;;0.00;0.00;;;37.20;34.70;;;;;;5109743;28;20028;-76
2021/06/16 08:11:33;;;;;;;0.10;0.10;;;38.10;33.00;;;;;;5106200;28;20077;-77
2021/06/16 08:13:59;;;;;;;0.08;0.05;;;38.40;32.10;;;;;;5091733;28;20474;-76
2021/06/16 08:16:25;;;;;;;0.00;0.00;;;39.20;31.10;;;;;;5108006;28;20090;-77
2021/06/16 08:18:52;;;;;;;0.00;0.00;;;39.40;29.80;;;;;;5110454;28;20522;-76
2021/06/16 08:21:18;;;;;;;0.13;0.10;;;38.80;30.40;;;;;;5110567;28;20016;-77
2021/06/16 08:23:45;;;;;;;0.40;0.10;;;38.30;31.20;;;;;;5108978;28;20024;-77
2021/06/16 08:26:11;;;;;;;0.03;0.03;;;39.00;30.40;;;;;;5110339;28;20024;-77
2021/06/16 08:28:38;;;;;;;0.05;0.05;;;39.30;29.60;;;;;;5100100;28;20446;-77
2021/06/16 08:31:04;;;;;;;0.10;0.10;;;39.50;29.00;;;;;;5094511;28;20123;-77
2021/06/16 08:33:30;;;;;;;0.00;0.00;;;40.10;28.00;;;;;;5096467;28;20055;-76
2021/06/16 08:35:55;;;;;;;0.17;0.10;;;40.00;29.00;;;;;;5095291;28;20071;-76
2021/06/16 08:38:21;;;;;;;0.05;0.05;;;40.00;28.60;;;;;;5097083;28;20020;-76
2021/06/16 08:40:48;;;;;;;0.00;0.00;;;40.10;28.10;;;;;;5096962;28;20085;-76
2021/06/16 08:43:14;;;;;;;0.10;0.10;;;40.30;29.20;;;;;;5088134;28;20472;-77
2021/06/16 08:45:41;;;;;;;0.10;0.10;;;39.70;28.10;;;;;;5076239;28;20743;-76
2021/06/16 08:48:08;;;;;;;0.00;0.00;;;40.00;28.10;;;;;;5076579;28;20047;-76
2021/06/16 08:50:34;;;;;;;0.10;0.10;;;40.40;27.70;;;;;;5075971;28;20039;-76
2021/06/16 08:53:00;;;;;;;0.00;0.00;;;39.90;27.60;;;;;;5086799;28;20035;-76
2021/06/16 08:55:25;;;;;;;0.10;0.10;;;39.80;28.90;;;;;;5079280;28;20032;-76
2021/06/16 08:57:51;;;;;;;0.10;0.10;;;40.00;28.70;;;;;;5074112;28;20526;-76
2021/06/16 09:00:19;;;;;;;0.13;0.10;;;40.30;27.00;;;;;;5095148;28;20539;-76
2021/06/16 09:02:45;;;;;;;0.00;0.00;;;39.90;28.40;;;;;;5092075;28;20021;-76
2021/06/16 09:05:12;;;;;;;0.10;0.10;;;40.40;27.70;;;;;;5095550;28;20505;-76
2021/06/16 09:07:41;;;;;;;0.10;0.10;;;40.50;28.20;;;;;;5095970;28;20016;-77
2021/06/16 09:10:14;;;;;;;0.08;0.00;;;40.60;27.20;;;;;;5095384;28;20490;-76
2021/06/16 09:12:44;;;;;;;0.10;0.10;;;40.40;27.40;;;;;;5093309;28;20094;-77
2021/06/16 09:15:17;;;;;;;0.00;0.00;;;40.80;27.00;;;;;;5095836;28;20028;-77
2021/06/16 09:18:02;;;;;;;0.10;0.03;;;40.60;27.60;;;;;;5093863;28;20052;-77
2021/06/16 09:20:31;;;;;;;0.10;0.10;;;40.80;27.50;;;;;;5094745;28;20028;-77
2021/06/16 09:23:17;;;;;;;0.10;0.10;;;40.50;28.10;;;;;;5091986;28;20453;-77
2021/06/16 09:26:01;;;;;;;0.10;0.10;;;40.80;27.60;;;;;;5092497;28;20104;-77
2021/06/16 09:28:34;;;;;;;0.10;0.10;;;41.20;27.70;;;;;;5085489;28;20047;-77
2021/06/16 09:31:00;;;;;;;0.10;0.10;;;41.40;26.80;;;;;;5075157;28;20410;-77
2021/06/16 09:33:27;;;;;;;0.10;0.10;;;41.70;27.10;;;;;;5082520;28;20021;-77
2021/06/16 09:35:52;;;;;;;0.10;0.10;;;41.10;27.20;;;;;;5074827;28;20044;-77
2021/06/16 09:38:24;;;;;;;0.10;0.10;;;40.30;28.50;;;;;;5073961;28;20415;-77
2021/06/16 09:40:51;;;;;;;0.10;0.10;;;40.60;28.00;;;;;;5073681;28;20020;-77
2021/06/16 09:43:20;;;;;;;0.00;0.00;;;40.50;28.10;;;;;;5075006;28;20020;-76
2021/06/16 09:45:52;;;;;;;0.40;0.00;;;39.80;28.10;;;;;;5087671;28;20041;-76
2021/06/16 09:48:24;;;;;;;0.00;0.00;;;39.50;29.50;;;;;;5093309;28;20016;-77
2021/06/16 09:51:08;;;;;;;0.10;0.10;;;39.90;28.90;;;;;;5094478;28;20032;-77
2021/06/16 09:53:34;;;;;;;0.10;0.10;;;40.50;28.70;;;;;;5091973;28;20605;-77
2021/06/16 09:56:16;;;;;;;0.00;0.00;;;40.20;28.10;;;;;;5094517;28;20035;-77
2021/06/16 09:58:42;;;;;;;0.00;0.00;;;40.00;28.50;;;;;;5091064;28;20048;-77
2021/06/16 10:01:07;;;;;;;0.32;0.10;;;39.40;28.20;;;;;;5091978;28;20101;-77
2021/06/16 10:03:33;;;;;;;0.10;0.10;;;39.40;28.50;;;;;;5074515;28;20121;-77
2021/06/16 10:06:14;;;;;;;0.00;0.00;;;39.80;27.80;;;;;;5073318;28;20036;-77
2021/06/16 10:08:44;;;;;;;0.05;0.00;;;39.90;27.80;;;;;;5076979;28;20032;-77
2021/06/16 10:11:15;;;;;;;0.00;0.00;;;39.90;27.50;;;;;;5094988;28;20031;-77
2021/06/16 10:13:42;;;;;;;0.10;0.10;;;38.80;28.90;;;;;;5094937;28;20020;-81
2021/06/16 10:16:09;;;;;;;0.00;0.00;;;39.00;29.70;;;;;;5085567;28;20032;-76
2021/06/16 10:18:44;;;;;;;0.03;0.00;;;39.10;29.90;;;;;;5094504;28;20028;-76
2021/06/16 10:21:12;;;;;;;0.00;0.00;;;39.30;29.40;;;;;;5093133;28;20044;-76
2021/06/16 10:23:38;;;;;;;0.00;0.00;;;38.60;29.80;;;;;;5093781;28;20020;-76
2021/06/16 10:26:09;;;;;;;0.00;0.00;;;37.90;31.10;;;;;;5093662;28;20032;-76
2021/06/16 10:28:39;;;;;;;0.00;0.00;;;37.70;31.20;;;;;;5074802;28;20104;-76
2021/06/16 10:31:06;;;;;;;0.00;0.00;;;37.20;31.60;;;;;;5094185;28;20088;-76
2021/06/16 10:33:41;;;;;;;0.00;0.00;;;36.60;32.00;;;;;;5093296;28;20028;-75
2021/06/16 10:36:21;;;;;;;0.00;0.00;;;36.40;32.80;;;;;;5072885;28;20028;-76
2021/06/16 10:39:01;;;;;;;0.00;0.00;;;36.20;32.20;;;;;;5074487;28;20025;-76
2021/06/16 10:41:46;;;;;;;0.08;0.00;;;35.80;33.20;;;;;;5073747;28;20029;-75
2021/06/16 10:44:14;;;;;;;0.00;0.00;;;35.80;33.40;;;;;;5088680;28;20080;-76
2021/06/16 10:47:09;;;;;;;0.00;0.00;;;35.80;34.40;;;;;;5094426;28;20024;-76
2021/06/16 10:49:47;;;;;;;0.00;0.00;;;35.80;35.10;;;;;;5079195;28;20032;-76
2021/06/16 10:52:16;;;;;;;0.05;0.00;;;35.50;34.10;;;;;;5074073;28;20033;-76
2021/06/16 10:54:57;;;;;;;0.05;0.00;;;35.10;34.40;;;;;;5074235;28;20028;-75
2021/06/16 10:57:23;;;;;;;0.00;0.00;;;34.90;34.60;;;;;;5073950;28;20025;-75
2021/06/16 10:59:50;;;;;;;0.00;0.00;;;34.60;35.80;;;;;;5082309;28;20036;-76
2021/06/16 11:02:39;;;;;;;0.05;0.00;;;34.70;35.70;;;;;;5074273;28;20788;-76
2021/06/16 11:05:19;;;;;;;0.00;0.00;;;34.50;35.70;;;;;;5072486;28;20103;-76
2021/06/16 11:07:45;;;;;;;0.00;0.00;;;34.30;36.20;;;;;;5074408;28;20612;-75
2021/06/16 11:10:10;;;;;;;0.00;0.00;;;34.30;36.60;;;;;;5075155;28;20085;-75
2021/06/16 11:12:40;;;;;;;0.00;0.00;;;34.20;36.70;;;;;;5075100;28;20048;-76
2021/06/16 11:15:11;;;;;;;0.00;0.00;;;34.20;36.80;;;;;;5091434;28;20034;-76
2021/06/16 11:17:36;;;;;;;0.00;0.00;;;34.40;36.60;;;;;;5093864;28;20146;-76
2021/06/16 11:20:08;;;;;;;0.00;0.00;;;34.40;36.00;;;;;;5094076;28;20024;-76
2021/06/16 11:22:37;;;;;;;0.00;0.00;;;34.30;35.10;;;;;;5095160;28;20100;-75
2021/06/16 11:25:15;;;;;;;0.00;0.00;;;34.30;36.40;;;;;;5095391;28;20016;-76
2021/06/16 11:28:10;;;;;;;0.00;0.00;;;34.40;36.30;;;;;;5077341;28;20465;-76
2021/06/16 11:30:47;;;;;;;0.00;0.00;;;34.30;34.80;;;;;;5074635;28;20024;-76
2021/06/16 11:33:19;;;;;;;0.03;0.00;;;34.30;34.30;;;;;;5074752;28;20045;-76
2021/06/16 11:35:46;;;;;;;0.00;0.00;;;34.30;35.60;;;;;;5074589;28;20031;-76
2021/06/16 11:38:25;;;;;;;0.00;0.00;;;34.40;34.80;;;;;;5083271;28;20032;-76
2021/06/16 11:41:15;;;;;;;0.10;0.00;;;34.30;34.00;;;;;;5095078;28;20475;-76
2021/06/16 11:43:55;;;;;;;0.00;0.00;;;34.00;35.30;;;;;;5093647;28;20025;-75
2021/06/16 11:46:28;;;;;;;;;;;33.90;35.20;;;;;;5075131;28;20139;-76
2021/06/16 11:49:11;;;;;;;0.00;0.00;;;33.90;35.40;;;;;;5074778;28;19908;-75
2021/06/16 11:51:51;;;;;;;0.00;0.00;;;33.70;36.00;;;;;;5074529;28;20591;-75
2021/06/16 11:54:29;;;;;;;0.00;0.00;;;33.80;36.10;;;;;;5074570;28;20093;-75
2021/06/16 11:56:54;;;;;;;0.00;0.00;;;33.50;37.20;;;;;;5090635;28;20544;-76
2021/06/16 11:59:53;;;;;;;0.20;0.00;;;33.30;36.70;;;;;;5089304;28;20083;-76
2021/06/16 12:02:26;;;;;;;0.28;0.00;;;33.30;36.70;;;;;;5072387;28;20521;-75
2021/06/16 12:05:01;;;;;;;0.00;0.00;;;33.30;37.00;;;;;;5077799;28;20033;-75
2021/06/16 12:07:32;;;;;;;0.00;0.00;;;33.30;37.70;;;;;;5077955;28;20070;-76
2021/06/16 12:10:04;;;;;;;0.00;0.00;;;33.50;37.40;;;;;;5076537;28;20075;-75
2021/06/16 12:12:57;;;;;;;0.00;0.00;;;33.50;37.20;;;;;;5078183;28;20047;-75
2021/06/16 12:15:25;;;;;;;0.00;0.00;;;33.40;36.90;;;;;;5098249;28;20059;-75
2021/06/16 12:18:09;;;;;;;0.00;0.00;;;33.40;36.70;;;;;;5098246;28;20544;-75
2021/06/16 12:20:40;;;;;;;0.00;0.00;;;33.40;36.50;;;;;;5092175;28;20522;-75
2021/06/16 12:23:33;;;;;;;0.00;0.00;;;33.60;37.00;;;;;;5078121;28;20073;-75
2021/06/16 12:26:05;;;;;;;0.00;0.00;;;33.70;36.80;;;;;;5077950;28;20032;-76
2021/06/16 12:28:33;;;;;;;0.00;0.00;;;33.70;36.20;;;;;;5077725;28;20024;-75
2021/06/16 12:30:59;;;;;;;0.00;0.00;;;33.60;35.90;;;;;;5077516;28;20523;-75
2021/06/16 12:34:30;;;;;;;0.10;0.00;;;33.30;35.70;;;;;;5077916;28;20233;-75
2021/06/16 12:36:31;;;;;;;0.00;0.00;;;33.00;36.10;;;;;;5081786;28;20111;-75
2021/06/16 12:39:03;;;;;;;0.00;0.00;;;33.00;36.20;;;;;;5092542;28;20047;-75
2021/06/16 12:41:30;;;;;;;0.10;0.00;;;33.00;35.90;;;;;;5077806;28;20023;-75
2021/06/16 12:44:16;;;;;;;0.35;0.00;;;32.90;37.40;;;;;;5090985;28;20020;-75
2021/06/16 12:47:01;;;;;;;0.00;0.00;;;32.70;37.00;;;;;;5097609;28;20100;-76
2021/06/16 12:49:39;;;;;;;0.00;0.00;;;32.80;37.10;;;;;;5096330;28;20032;-75
2021/06/16 12:52:07;;;;;;;0.00;0.00;;;32.90;37.00;;;;;;5094079;28;20027;-76
2021/06/16 12:54:44;;;;;;;0.00;0.00;;;33.10;36.60;;;;;;5083802;28;20016;-76
2021/06/16 12:57:15;;;;;;;0.10;0.00;;;33.40;36.70;;;;;;5091947;28;20648;-75
2021/06/16 12:59:52;;;;;;;0.10;0.00;;;33.60;36.70;;;;;;5087839;28;20455;-75
2021/06/16 13:02:30;;;;;;;0.00;0.00;;;33.60;35.70;;;;;;5097138;28;20020;-75
2021/06/16 13:05:05;;;;;;;0.00;0.00;;;33.70;36.30;;;;;;5095978;28;20502;-75
2021/06/16 13:07:44;;;;;;;0.10;0.00;;;33.60;36.50;;;;;;5097588;28;20079;-76
2021/06/16 13:10:10;;;;;;;0.00;0.00;;;33.60;37.20;;;;;;5089407;28;20028;-76
2021/06/16 13:12:36;;;;;;;0.00;0.00;;;33.40;37.50;;;;;;5086172;28;20031;-76
2021/06/16 13:15:08;;;;;;;0.10;0.00;;;33.50;37.60;;;;;;5090754;28;20032;-76
2021/06/16 13:18:00;;;;;;;0.10;0.00;;;33.60;38.70;;;;;;5095813;28;20048;-76
2021/06/16 13:20:38;;;;;;;0.00;0.00;;;33.60;39.60;;;;;;5095190;28;20064;-76
2021/06/16 13:23:18;;;;;;;0.00;0.00;;;33.30;40.30;;;;;;5077230;28;20025;-77
2021/06/16 13:25:46;;;;;;;0.00;0.00;;;33.30;41.00;;;;;;5082120;28;20329;-75